sensor_id;sensor_type;location;lat;lon;timestamp;pressure;altitude;pressure_sealevel;temperature;humidity
45255;BME280;30989;52.078;21.014;2024-03-02T00:01:09;165367.38;;;6.17;100.00
45255;BME280;30989;52.078;21.014;2024-03-02T00:03:37;165359.34;;;6.13;100.00
45255;BME280;30989;52.078;21.014;2024-03-02T00:06:03;165355.34;;;6.12;100.00
45255;BME280;30989;52.078;21.014;2024-03-02T00:08:29;165346.00;;;6.08;100.00
45255;BME280;30989;52.078;21.014;2024-03-02T00:10:59;165359.34;;;6.13;100.00
45255;BME280;30989;52.078;21.014;2024-03-02T00:13:25;165358.03;;;6.13;100.00
45255;BME280;30989;52.078;21.014;2024-03-02T00:15:55;165348.66;;;6.09;100.00
45255;BME280;30989;52.078;21.014;2024-03-02T00:18:25;165354.00;;;6.11;100.00
45255;BME280;30989;52.078;21.014;2024-03-02T00:20:55;165343.31;;;6.07;100.00
45255;BME280;30989;52.078;21.014;2024-03-02T00:23:24;165348.66;;;6.09;100.00
45255;BME280;30989;52.078;21.014;2024-03-02T00:25:51;165342.00;;;6.07;100.00
45255;BME280;30989;52.078;21.014;2024-03-02T00:28:26;165346.00;;;6.08;100.00
45255;BME280;30989;52.078;21.014;2024-03-02T00:33:21;165327.31;;;6.01;100.00
45255;BME280;30989;52.078;21.014;2024-03-02T00:35:47;165331.31;;;6.03;100.00
45255;BME280;30989;52.078;21.014;2024-03-02T00:38:14;165338.00;;;6.05;100.00
45255;BME280;30989;52.078;21.014;2024-03-02T00:40:41;165336.66;;;6.05;100.00
45255;BME280;30989;52.078;21.014;2024-03-02T00:43:58;165332.66;;;6.03;100.00
45255;BME280;30989;52.078;21.014;2024-03-02T00:46:23;165327.31;;;6.01;100.00
45255;BME280;30989;52.078;21.014;2024-03-02T00:48:55;165331.31;;;6.03;100.00
45255;BME280;30989;52.078;21.014;2024-03-02T00:51:22;165323.28;;;6.00;100.00
45255;BME280;30989;52.078;21.014;2024-03-02T00:53:49;165324.63;;;6.00;100.00
45255;BME280;30989;52.078;21.014;2024-03-02T00:56:15;165319.28;;;5.98;100.00
45255;BME280;30989;52.078;21.014;2024-03-02T00:58:41;165301.94;;;5.92;100.00
45255;BME280;30989;52.078;21.014;2024-03-02T01:01:06;165300.59;;;5.91;100.00
45255;BME280;30989;52.078;21.014;2024-03-02T01:03:33;165284.53;;;5.85;100.00
45255;BME280;30989;52.078;21.014;2024-03-02T01:05:59;165268.50;;;5.79;100.00
45255;BME280;30989;52.078;21.014;2024-03-02T01:08:24;165281.84;;;5.84;100.00
45255;BME280;30989;52.078;21.014;2024-03-02T01:10:51;165255.16;;;5.74;100.00
45255;BME280;30989;52.078;21.014;2024-03-02T01:13:17;165271.19;;;5.80;100.00
45255;BME280;30989;52.078;21.014;2024-03-02T01:15:42;165269.84;;;5.79;100.00
45255;BME280;30989;52.078;21.014;2024-03-02T01:18:08;165256.50;;;5.74;100.00
45255;BME280;30989;52.078;21.014;2024-03-02T01:20:33;165263.16;;;5.77;100.00
45255;BME280;30989;52.078;21.014;2024-03-02T01:22:59;165261.81;;;5.76;100.00
45255;BME280;30989;52.078;21.014;2024-03-02T01:25:24;165231.13;;;5.65;100.00
45255;BME280;30989;52.078;21.014;2024-03-02T01:27:50;165249.81;;;5.72;100.00
45255;BME280;30989;52.078;21.014;2024-03-02T01:30:16;165249.81;;;5.72;100.00
45255;BME280;30989;52.078;21.014;2024-03-02T01:32:41;165247.13;;;5.71;100.00
45255;BME280;30989;52.078;21.014;2024-03-02T01:35:07;165235.13;;;5.66;100.00
45255;BME280;30989;52.078;21.014;2024-03-02T01:37:33;165233.78;;;5.66;100.00
45255;BME280;30989;52.078;21.014;2024-03-02T01:39:58;165240.47;;;5.68;100.00
45255;BME280;30989;52.078;21.014;2024-03-02T01:42:24;165241.81;;;5.69;100.00
45255;BME280;30989;52.078;21.014;2024-03-02T01:44:50;165235.13;;;5.66;100.00
45255;BME280;30989;52.078;21.014;2024-03-02T01:47:16;165247.13;;;5.71;100.00
45255;BME280;30989;52.078;21.014;2024-03-02T01:49:41;165248.47;;;5.71;100.00
45255;BME280;30989;52.078;21.014;2024-03-02T01:52:07;165244.47;;;5.70;100.00
45255;BME280;30989;52.078;21.014;2024-03-02T01:54:33;165241.81;;;5.69;100.00
45255;BME280;30989;52.078;21.014;2024-03-02T01:56:59;165244.47;;;5.70;100.00
45255;BME280;30989;52.078;21.014;2024-03-02T01:59:25;165239.13;;;5.68;100.00
45255;BME280;30989;52.078;21.014;2024-03-02T02:01:50;165239.13;;;5.68;100.00
45255;BME280;30989;52.078;21.014;2024-03-02T02:04:16;165236.47;;;5.67;100.00
45255;BME280;30989;52.078;21.014;2024-03-02T02:06:43;165233.78;;;5.66;100.00
45255;BME280;30989;52.078;21.014;2024-03-02T02:09:09;165224.44;;;5.62;100.00
45255;BME280;30989;52.078;21.014;2024-03-02T02:11:35;165228.44;;;5.64;100.00
45255;BME280;30989;52.078;21.014;2024-03-02T02:14:00;165197.75;;;5.52;100.00
45255;BME280;30989;52.078;21.014;2024-03-02T02:16:26;165212.44;;;5.58;100.00
45255;BME280;30989;52.078;21.014;2024-03-02T02:18:51;165212.44;;;5.58;100.00
45255;BME280;30989;52.078;21.014;2024-03-02T02:21:17;165209.75;;;5.57;100.00
45255;BME280;30989;52.078;21.014;2024-03-02T02:23:42;165199.09;;;5.53;100.00
45255;BME280;30989;52.078;21.014;2024-03-02T02:26:12;165184.41;;;5.47;100.00
45255;BME280;30989;52.078;21.014;2024-03-02T02:28:37;165161.72;;;5.38;100.00
45255;BME280;30989;52.078;21.014;2024-03-02T02:31:03;165188.41;;;5.48;100.00
45255;BME280;30989;52.078;21.014;2024-03-02T02:33:29;165180.41;;;5.45;100.00
45255;BME280;30989;52.078;21.014;2024-03-02T02:35:54;165176.38;;;5.44;100.00
45255;BME280;30989;52.078;21.014;2024-03-02T02:38:20;165168.38;;;5.41;100.00
45255;BME280;30989;52.078;21.014;2024-03-02T02:40:45;165167.03;;;5.40;100.00
45255;BME280;30989;52.078;21.014;2024-03-02T02:43:12;165159.03;;;5.37;100.00
45255;BME280;30989;52.078;21.014;2024-03-02T02:45:37;165156.38;;;5.36;100.00
45255;BME280;30989;52.078;21.014;2024-03-02T02:48:03;165148.34;;;5.33;100.00
45255;BME280;30989;52.078;21.014;2024-03-02T02:50:28;165133.69;;;5.28;100.00
45255;BME280;30989;52.078;21.014;2024-03-02T02:52:54;165135.00;;;5.28;100.00
45255;BME280;30989;52.078;21.014;2024-03-02T02:55:19;165123.00;;;5.24;100.00
45255;BME280;30989;52.078;21.014;2024-03-02T02:57:45;165119.00;;;5.22;100.00
45255;BME280;30989;52.078;21.014;2024-03-02T03:00:15;165113.66;;;5.20;100.00
45255;BME280;30989;52.078;21.014;2024-03-02T03:02:46;165101.59;;;5.15;100.00
45255;BME280;30989;52.078;21.014;2024-03-02T03:05:13;165101.59;;;5.15;100.00
45255;BME280;30989;52.078;21.014;2024-03-02T03:07:41;165076.25;;;5.06;100.00
45255;BME280;30989;52.078;21.014;2024-03-02T03:10:08;165076.25;;;5.06;100.00
45255;BME280;30989;52.078;21.014;2024-03-02T03:12:34;165062.91;;;5.01;100.00
45255;BME280;30989;52.078;21.014;2024-03-02T03:15:00;165073.56;;;5.05;100.00
45255;BME280;30989;52.078;21.014;2024-03-02T03:17:27;165072.25;;;5.04;100.00
45255;BME280;30989;52.078;21.014;2024-03-02T03:19:52;165062.91;;;5.01;100.00
45255;BME280;30989;52.078;21.014;2024-03-02T03:22:18;165054.88;;;4.98;100.00
45255;BME280;30989;52.078;21.014;2024-03-02T03:24:44;165042.88;;;4.93;100.00
45255;BME280;30989;52.078;21.014;2024-03-02T03:27:10;165049.56;;;4.96;100.00
45255;BME280;30989;52.078;21.014;2024-03-02T03:29:36;165050.88;;;4.96;100.00
45255;BME280;30989;52.078;21.014;2024-03-02T03:32:02;165052.22;;;4.97;100.00
45255;BME280;30989;52.078;21.014;2024-03-02T03:34:28;165057.56;;;4.99;100.00
45255;BME280;30989;52.078;21.014;2024-03-02T03:36:54;165049.56;;;4.96;100.00
45255;BME280;30989;52.078;21.014;2024-03-02T03:39:20;165060.22;;;5.00;100.00
45255;BME280;30989;52.078;21.014;2024-03-02T03:41:45;165062.91;;;5.01;100.00
45255;BME280;30989;52.078;21.014;2024-03-02T03:44:11;165050.88;;;4.96;100.00
45255;BME280;30989;52.078;21.014;2024-03-02T03:46:36;165052.22;;;4.97;100.00
45255;BME280;30989;52.078;21.014;2024-03-02T03:49:03;165052.22;;;4.97;100.00
45255;BME280;30989;52.078;21.014;2024-03-02T03:51:29;165021.53;;;4.85;100.00
45255;BME280;30989;52.078;21.014;2024-03-02T03:53:55;165030.88;;;4.89;100.00
45255;BME280;30989;52.078;21.014;2024-03-02T03:56:21;165036.22;;;4.91;100.00
45255;BME280;30989;52.078;21.014;2024-03-02T03:58:46;165028.22;;;4.88;100.00
45255;BME280;30989;52.078;21.014;2024-03-02T04:01:12;165025.53;;;4.86;100.00
45255;BME280;30989;52.078;21.014;2024-03-02T04:03:38;165012.19;;;4.81;100.00
45255;BME280;30989;52.078;21.014;2024-03-02T04:06:03;164973.50;;;4.67;100.00
45255;BME280;30989;52.078;21.014;2024-03-02T04:08:29;165006.84;;;4.79;100.00
45255;BME280;30989;52.078;21.014;2024-03-02T04:10:54;164993.50;;;4.74;100.00
45255;BME280;30989;52.078;21.014;2024-03-02T04:13:20;164996.19;;;4.75;100.00
45255;BME280;30989;52.078;21.014;2024-03-02T04:15:46;164988.19;;;4.72;100.00
45255;BME280;30989;52.078;21.014;2024-03-02T04:18:11;164977.50;;;4.68;100.00
45255;BME280;30989;52.078;21.014;2024-03-02T04:20:37;164980.19;;;4.69;100.00
45255;BME280;30989;52.078;21.014;2024-03-02T04:23:02;164974.84;;;4.67;100.00
45255;BME280;30989;52.078;21.014;2024-03-02T04:25:28;164969.50;;;4.65;100.00
45255;BME280;30989;52.078;21.014;2024-03-02T04:27:53;164973.50;;;4.67;100.00
45255;BME280;30989;52.078;21.014;2024-03-02T04:30:19;164966.84;;;4.64;100.00
45255;BME280;30989;52.078;21.014;2024-03-02T04:32:44;164954.81;;;4.60;100.00
45255;BME280;30989;52.078;21.014;2024-03-02T04:35:12;164957.50;;;4.61;100.00
45255;BME280;30989;52.078;21.014;2024-03-02T04:37:38;164953.50;;;4.59;100.00
45255;BME280;30989;52.078;21.014;2024-03-02T04:40:04;164957.50;;;4.61;100.00
45255;BME280;30989;52.078;21.014;2024-03-02T04:42:33;164950.81;;;4.58;100.00
45255;BME280;30989;52.078;21.014;2024-03-02T04:44:59;164948.16;;;4.57;100.00
45255;BME280;30989;52.078;21.014;2024-03-02T04:47:25;164956.16;;;4.60;100.00
45255;BME280;30989;52.078;21.014;2024-03-02T04:49:50;164938.81;;;4.53;100.00
45255;BME280;30989;52.078;21.014;2024-03-02T04:52:16;164948.16;;;4.57;100.00
45255;BME280;30989;52.078;21.014;2024-03-02T04:54:41;164948.16;;;4.57;100.00
45255;BME280;30989;52.078;21.014;2024-03-02T04:57:26;164950.81;;;4.58;100.00
45255;BME280;30989;52.078;21.014;2024-03-02T04:59:51;164953.50;;;4.59;100.00
45255;BME280;30989;52.078;21.014;2024-03-02T05:02:17;164950.81;;;4.58;100.00
45255;BME280;30989;52.078;21.014;2024-03-02T05:04:42;164952.16;;;4.59;100.00
45255;BME280;30989;52.078;21.014;2024-03-02T05:07:08;164957.50;;;4.61;100.00
45255;BME280;30989;52.078;21.014;2024-03-02T05:09:33;164937.47;;;4.53;100.00
45255;BME280;30989;52.078;21.014;2024-03-02T05:11:59;164961.50;;;4.62;100.00
45255;BME280;30989;52.078;21.014;2024-03-02T05:14:45;164966.84;;;4.64;100.00
45255;BME280;30989;52.078;21.014;2024-03-02T05:17:11;164964.16;;;4.63;100.00
45255;BME280;30989;52.078;21.014;2024-03-02T05:19:36;164972.16;;;4.66;100.00
45255;BME280;30989;52.078;21.014;2024-03-02T05:22:02;164977.50;;;4.68;100.00
45255;BME280;30989;52.078;21.014;2024-03-02T05:24:28;164972.16;;;4.66;100.00
45255;BME280;30989;52.078;21.014;2024-03-02T05:26:55;164978.84;;;4.69;100.00
45255;BME280;30989;52.078;21.014;2024-03-02T05:29:20;164982.84;;;4.70;100.00
45255;BME280;30989;52.078;21.014;2024-03-02T05:31:46;164969.50;;;4.65;100.00
45255;BME280;30989;52.078;21.014;2024-03-02T05:34:12;164976.16;;;4.68;100.00
45255;BME280;30989;52.078;21.014;2024-03-02T05:36:37;164985.50;;;4.71;100.00
45255;BME280;30989;52.078;21.014;2024-03-02T05:39:05;164970.84;;;4.66;100.00
45255;BME280;30989;52.078;21.014;2024-03-02T05:41:34;164982.84;;;4.70;100.00
45255;BME280;30989;52.078;21.014;2024-03-02T05:44:00;164994.84;;;4.75;100.00
45255;BME280;30989;52.078;21.014;2024-03-02T05:46:25;164998.84;;;4.76;100.00
45255;BME280;30989;52.078;21.014;2024-03-02T05:48:51;164998.84;;;4.76;100.00
45255;BME280;30989;52.078;21.014;2024-03-02T05:51:17;165005.53;;;4.79;100.00
45255;BME280;30989;52.078;21.014;2024-03-02T05:53:42;165013.53;;;4.82;100.00
45255;BME280;30989;52.078;21.014;2024-03-02T05:56:08;165017.53;;;4.83;100.00
45255;BME280;30989;52.078;21.014;2024-03-02T05:58:34;164997.50;;;4.76;100.00
45255;BME280;30989;52.078;21.014;2024-03-02T06:01:17;165030.88;;;4.89;100.00
45255;BME280;30989;52.078;21.014;2024-03-02T06:03:43;165033.53;;;4.90;100.00
45255;BME280;30989;52.078;21.014;2024-03-02T06:06:09;165014.84;;;4.82;100.00
45255;BME280;30989;52.078;21.014;2024-03-02T06:08:34;165044.22;;;4.94;100.00
45255;BME280;30989;52.078;21.014;2024-03-02T06:11:00;165049.56;;;4.96;100.00
45255;BME280;30989;52.078;21.014;2024-03-02T06:13:26;165045.56;;;4.94;100.00
45255;BME280;30989;52.078;21.014;2024-03-02T06:15:52;165061.56;;;5.00;100.00
45255;BME280;30989;52.078;21.014;2024-03-02T06:18:17;165064.22;;;5.01;100.00
45255;BME280;30989;52.078;21.014;2024-03-02T06:20:43;165073.56;;;5.05;100.00
45255;BME280;30989;52.078;21.014;2024-03-02T06:23:08;165086.91;;;5.10;100.00
45255;BME280;30989;52.078;21.014;2024-03-02T06:25:34;165092.25;;;5.12;100.00
45255;BME280;30989;52.078;21.014;2024-03-02T06:28:00;165104.28;;;5.16;100.00
45255;BME280;30989;52.078;21.014;2024-03-02T06:30:25;165112.28;;;5.19;100.00
45255;BME280;30989;52.078;21.014;2024-03-02T06:32:51;165119.00;;;5.22;100.00
45255;BME280;30989;52.078;21.014;2024-03-02T06:35:16;165129.69;;;5.26;100.00
45255;BME280;30989;52.078;21.014;2024-03-02T06:37:42;165144.34;;;5.32;100.00
45255;BME280;30989;52.078;21.014;2024-03-02T06:40:08;165148.34;;;5.33;100.00
45255;BME280;30989;52.078;21.014;2024-03-02T06:42:34;165153.69;;;5.35;100.00
45255;BME280;30989;52.078;21.014;2024-03-02T06:45:00;165160.38;;;5.38;100.00
45255;BME280;30989;52.078;21.014;2024-03-02T06:47:26;165165.72;;;5.40;100.00
45255;BME280;30989;52.078;21.014;2024-03-02T06:49:51;165177.72;;;5.44;100.00
45255;BME280;30989;52.078;21.014;2024-03-02T06:52:18;165188.41;;;5.48;100.00
45255;BME280;30989;52.078;21.014;2024-03-02T06:54:44;165180.41;;;5.45;100.00
45255;BME280;30989;52.078;21.014;2024-03-02T06:57:09;165196.41;;;5.52;100.00
45255;BME280;30989;52.078;21.014;2024-03-02T06:59:35;165201.75;;;5.54;100.00
45255;BME280;30989;52.078;21.014;2024-03-02T07:02:00;165193.75;;;5.50;100.00
45255;BME280;30989;52.078;21.014;2024-03-02T07:04:27;165205.75;;;5.55;100.00
45255;BME280;30989;52.078;21.014;2024-03-02T07:06:52;165207.09;;;5.56;100.00
45255;BME280;30989;52.078;21.014;2024-03-02T07:09:18;165208.44;;;5.56;100.00
45255;BME280;30989;52.078;21.014;2024-03-02T07:11:43;165221.78;;;5.61;100.00
45255;BME280;30989;52.078;21.014;2024-03-02T07:14:10;165219.09;;;5.60;100.00
45255;BME280;30989;52.078;21.014;2024-03-02T07:16:37;165236.47;;;5.67;100.00
45255;BME280;30989;52.078;21.014;2024-03-02T07:19:03;165244.47;;;5.70;100.00
45255;BME280;30989;52.078;21.014;2024-03-02T07:21:29;165247.13;;;5.71;100.00
45255;BME280;30989;52.078;21.014;2024-03-02T07:23:54;165255.16;;;5.74;100.00
45255;BME280;30989;52.078;21.014;2024-03-02T07:26:20;165255.16;;;5.74;100.00
45255;BME280;30989;52.078;21.014;2024-03-02T07:28:46;165256.50;;;5.74;100.00
45255;BME280;30989;52.078;21.014;2024-03-02T07:31:13;165264.50;;;5.77;100.00
45255;BME280;30989;52.078;21.014;2024-03-02T07:33:38;165257.81;;;5.75;100.00
45255;BME280;30989;52.078;21.014;2024-03-02T07:36:04;165268.50;;;5.79;100.00
45255;BME280;30989;52.078;21.014;2024-03-02T07:38:30;165279.19;;;5.83;100.00
45255;BME280;30989;52.078;21.014;2024-03-02T07:40:57;165291.19;;;5.88;100.00
45255;BME280;30989;52.078;21.014;2024-03-02T07:43:23;165293.88;;;5.89;100.00
45255;BME280;30989;52.078;21.014;2024-03-02T07:45:48;165315.28;;;5.97;100.00
45255;BME280;30989;52.078;21.014;2024-03-02T07:48:14;165325.97;;;6.01;100.00
45255;BME280;30989;52.078;21.014;2024-03-02T07:50:40;165338.00;;;6.05;100.00
45255;BME280;30989;52.078;21.014;2024-03-02T07:53:06;165362.03;;;6.14;100.00
45255;BME280;30989;52.078;21.014;2024-03-02T07:55:33;165348.66;;;6.09;100.00
45255;BME280;30989;52.078;21.014;2024-03-02T07:58:01;165391.41;;;6.26;100.00
45255;BME280;30989;52.078;21.014;2024-03-02T08:00:27;165402.09;;;6.30;100.00
45255;BME280;30989;52.078;21.014;2024-03-02T08:02:53;165410.09;;;6.33;100.00
45255;BME280;30989;52.078;21.014;2024-03-02T08:05:19;165434.16;;;6.42;100.00
45255;BME280;30989;52.078;21.014;2024-03-02T08:07:46;165450.16;;;6.48;100.00
45255;BME280;30989;52.078;21.014;2024-03-02T08:10:12;165458.19;;;6.51;100.00
45255;BME280;30989;52.078;21.014;2024-03-02T08:12:38;165447.50;;;6.47;100.00
45255;BME280;30989;52.078;21.014;2024-03-02T08:15:04;165467.53;;;6.55;100.00
45255;BME280;30989;52.078;21.014;2024-03-02T08:17:30;165479.56;;;6.59;100.00
45255;BME280;30989;52.078;21.014;2024-03-02T08:19:56;165483.56;;;6.61;100.00
45255;BME280;30989;52.078;21.014;2024-03-02T08:22:22;165484.91;;;6.61;100.00
45255;BME280;30989;52.078;21.014;2024-03-02T08:24:48;165483.56;;;6.61;100.00
45255;BME280;30989;52.078;21.014;2024-03-02T08:27:13;165487.56;;;6.62;100.00
45255;BME280;30989;52.078;21.014;2024-03-02T08:29:40;165486.25;;;6.62;100.00
45255;BME280;30989;52.078;21.014;2024-03-02T08:32:06;165487.56;;;6.62;100.00
45255;BME280;30989;52.078;21.014;2024-03-02T08:34:32;165490.25;;;6.63;100.00
45255;BME280;30989;52.078;21.014;2024-03-02T08:36:59;165468.88;;;6.55;100.00
45255;BME280;30989;52.078;21.014;2024-03-02T08:39:24;165499.59;;;6.67;100.00
45255;BME280;30989;52.078;21.014;2024-03-02T08:41:50;165503.59;;;6.68;100.00
45255;BME280;30989;52.078;21.014;2024-03-02T08:44:16;165512.97;;;6.72;100.00
45255;BME280;30989;52.078;21.014;2024-03-02T08:46:42;165522.31;;;6.75;100.00
45255;BME280;30989;52.078;21.014;2024-03-02T08:49:07;165531.66;;;6.79;100.00
45255;BME280;30989;52.078;21.014;2024-03-02T08:51:33;165533.00;;;6.79;100.00
45255;BME280;30989;52.078;21.014;2024-03-02T08:53:58;165524.97;;;6.76;100.00
45255;BME280;30989;52.078;21.014;2024-03-02T08:56:24;165541.00;;;6.83;100.00
45255;BME280;30989;52.078;21.014;2024-03-02T08:58:51;165551.69;;;6.87;100.00
45255;BME280;30989;52.078;21.014;2024-03-02T09:01:18;165543.69;;;6.84;100.00
45255;BME280;30989;52.078;21.014;2024-03-02T09:03:43;165551.69;;;6.87;100.00
45255;BME280;30989;52.078;21.014;2024-03-02T09:06:13;165567.72;;;6.93;100.00
45255;BME280;30989;52.078;21.014;2024-03-02T09:08:39;165578.44;;;6.97;100.00
45255;BME280;30989;52.078;21.014;2024-03-02T09:11:05;165574.41;;;6.95;100.00
45255;BME280;30989;52.078;21.014;2024-03-02T09:13:32;165594.47;;;7.03;100.00
45255;BME280;30989;52.078;21.014;2024-03-02T09:15:58;165597.13;;;7.04;100.00
45255;BME280;30989;52.078;21.014;2024-03-02T09:18:24;165599.81;;;7.05;100.00
45255;BME280;30989;52.078;21.014;2024-03-02T09:20:49;165599.81;;;7.05;100.00
45255;BME280;30989;52.078;21.014;2024-03-02T09:23:15;165606.50;;;7.07;100.00
45255;BME280;30989;52.078;21.014;2024-03-02T09:25:40;165605.16;;;7.07;100.00
45255;BME280;30989;52.078;21.014;2024-03-02T09:28:06;165611.81;;;7.09;100.00
45255;BME280;30989;52.078;21.014;2024-03-02T09:30:32;165607.81;;;7.08;100.00
45255;BME280;30989;52.078;21.014;2024-03-02T09:32:57;165605.16;;;7.07;100.00
45255;BME280;30989;52.078;21.014;2024-03-02T09:35:23;165615.84;;;7.11;100.00
45255;BME280;30989;52.078;21.014;2024-03-02T09:37:49;165617.19;;;7.11;100.00
45255;BME280;30989;52.078;21.014;2024-03-02T09:40:15;165641.22;;;7.21;100.00
45255;BME280;30989;52.078;21.014;2024-03-02T09:42:41;165655.94;;;7.26;100.00
45255;BME280;30989;52.078;21.014;2024-03-02T09:45:09;165666.63;;;7.30;100.00
45255;BME280;30989;52.078;21.014;2024-03-02T09:47:35;165686.69;;;7.38;100.00
45255;BME280;30989;52.078;21.014;2024-03-02T09:50:00;165709.38;;;7.47;100.00
45255;BME280;30989;52.078;21.014;2024-03-02T09:52:26;165717.41;;;7.50;100.00
45255;BME280;30989;52.078;21.014;2024-03-02T09:54:51;165724.09;;;7.52;100.00
45255;BME280;30989;52.078;21.014;2024-03-02T09:57:17;165730.78;;;7.55;100.00
45255;BME280;30989;52.078;21.014;2024-03-02T09:59:42;165740.13;;;7.58;100.00
45255;BME280;30989;52.078;21.014;2024-03-02T10:02:08;165744.16;;;7.60;100.00
45255;BME280;30989;52.078;21.014;2024-03-02T10:04:34;165756.19;;;7.64;100.00
45255;BME280;30989;52.078;21.014;2024-03-02T10:07:18;165761.53;;;7.66;100.00
45255;BME280;30989;52.078;21.014;2024-03-02T10:09:45;165777.56;;;7.72;100.00
45255;BME280;30989;52.078;21.014;2024-03-02T10:12:11;165785.59;;;7.75;100.00
45255;BME280;30989;52.078;21.014;2024-03-02T10:14:38;165790.94;;;7.78;100.00
45255;BME280;30989;52.078;21.014;2024-03-02T10:17:12;165770.88;;;7.70;100.00
45255;BME280;30989;52.078;21.014;2024-03-02T10:19:38;165802.97;;;7.82;100.00
45255;BME280;30989;52.078;21.014;2024-03-02T10:22:05;165825.69;;;7.91;100.00
45255;BME280;30989;52.078;21.014;2024-03-02T10:27:18;165856.44;;;8.02;100.00
45255;BME280;30989;52.078;21.014;2024-03-02T10:29:47;165884.53;;;8.13;100.00
45255;BME280;30989;52.078;21.014;2024-03-02T10:32:13;165897.91;;;8.18;100.00
45255;BME280;30989;52.078;21.014;2024-03-02T10:34:42;165934.00;;;8.32;100.00
45255;BME280;30989;52.078;21.014;2024-03-02T10:37:10;165940.75;;;8.34;100.00
45255;BME280;30989;52.078;21.014;2024-03-02T10:39:36;165952.78;;;8.39;100.00
45255;BME280;30989;52.078;21.014;2024-03-02T10:42:03;165972.84;;;8.47;100.00
45255;BME280;30989;52.078;21.014;2024-03-02T10:44:30;166006.28;;;8.59;100.00
45255;BME280;30989;52.078;21.014;2024-03-02T10:46:57;166027.69;;;8.67;100.00
45255;BME280;30989;52.078;21.014;2024-03-02T10:49:26;166057.13;;;8.79;100.00
45255;BME280;30989;52.078;21.014;2024-03-02T10:51:51;166046.41;;;8.75;100.00
45255;BME280;30989;52.078;21.014;2024-03-02T10:54:17;166054.44;;;8.78;100.00
45255;BME280;30989;52.078;21.014;2024-03-02T10:56:44;166062.47;;;8.81;100.00
45255;BME280;30989;52.078;21.014;2024-03-02T11:01:57;166067.81;;;8.83;100.00
45255;BME280;30989;52.078;21.014;2024-03-02T11:04:27;166067.81;;;8.83;100.00
45255;BME280;30989;52.078;21.014;2024-03-02T11:06:59;166097.25;;;8.94;100.00
45255;BME280;30989;52.078;21.014;2024-03-02T11:09:27;166140.06;;;9.10;100.00
45255;BME280;30989;52.078;21.014;2024-03-02T11:14:28;166200.28;;;9.33;100.00
45255;BME280;30989;52.078;21.014;2024-03-02T11:16:54;166228.38;;;9.44;100.00
45255;BME280;30989;52.078;21.014;2024-03-02T11:19:20;166239.09;;;9.48;100.00
45255;BME280;30989;52.078;21.014;2024-03-02T11:21:46;166240.44;;;9.48;100.00
45255;BME280;30989;52.078;21.014;2024-03-02T11:26:50;166243.13;;;9.49;100.00
45255;BME280;30989;52.078;21.014;2024-03-02T11:32:22;166259.19;;;9.55;100.00
45255;BME280;30989;52.078;21.014;2024-03-02T11:34:51;166287.28;;;9.66;100.00
45255;BME280;30989;52.078;21.014;2024-03-02T11:37:18;166352.88;;;9.91;100.00
45255;BME280;30989;52.078;21.014;2024-03-02T11:39:47;166401.06;;;10.09;100.00
45255;BME280;30989;52.078;21.014;2024-03-02T11:42:15;166442.63;;;10.25;100.00
45255;BME280;30989;52.078;21.014;2024-03-02T11:44:43;166469.41;;;10.35;100.00
45255;BME280;30989;52.078;21.014;2024-03-02T11:47:11;166469.41;;;10.35;100.00
45255;BME280;30989;52.078;21.014;2024-03-02T11:49:44;166449.34;;;10.27;100.00
45255;BME280;30989;52.078;21.014;2024-03-02T11:52:12;166453.34;;;10.29;100.00
45255;BME280;30989;52.078;21.014;2024-03-02T11:54:39;166506.97;;;10.49;100.00
45255;BME280;30989;52.078;21.014;2024-03-02T11:57:08;166568.59;;;10.73;100.00
45255;BME280;30989;52.078;21.014;2024-03-02T11:59:34;166614.13;;;10.90;100.00
45255;BME280;30989;52.078;21.014;2024-03-02T12:02:00;166665.03;;;11.09;100.00
45255;BME280;30989;52.078;21.014;2024-03-02T12:04:26;166685.13;;;11.17;100.00
45255;BME280;30989;52.078;21.014;2024-03-02T12:06:56;166721.31;;;11.30;100.00
45255;BME280;30989;52.078;21.014;2024-03-02T12:09:26;166777.59;;;11.52;100.00
45255;BME280;30989;52.078;21.014;2024-03-02T12:12:10;166823.16;;;11.69;100.00
45255;BME280;30989;52.078;21.014;2024-03-02T12:14:37;166856.72;;;11.82;100.00
45255;BME280;30989;52.078;21.014;2024-03-02T12:17:03;166876.81;;;11.89;100.00
45255;BME280;30989;52.078;21.014;2024-03-02T12:19:30;166863.41;;;11.84;100.00
45255;BME280;30989;52.078;21.014;2024-03-02T12:21:59;166835.22;;;11.74;100.00
45255;BME280;30989;52.078;21.014;2024-03-02T12:24:29;166788.31;;;11.56;100.00
45255;BME280;30989;52.078;21.014;2024-03-02T12:26:55;166776.25;;;11.51;100.00
45255;BME280;30989;52.078;21.014;2024-03-02T12:29:21;166761.50;;;11.46;100.00
45255;BME280;30989;52.078;21.014;2024-03-02T12:31:50;166740.06;;;11.38;100.00
45255;BME280;30989;52.078;21.014;2024-03-02T12:34:18;166742.75;;;11.39;100.00
45255;BME280;30989;52.078;21.014;2024-03-02T12:36:45;166729.34;;;11.34;100.00
45255;BME280;30989;52.078;21.014;2024-03-02T12:39:17;166723.97;;;11.32;100.00
45255;BME280;30989;52.078;21.014;2024-03-02T12:41:46;166711.94;;;11.27;100.00
45255;BME280;30989;52.078;21.014;2024-03-02T12:44:12;166710.59;;;11.26;100.00
45255;BME280;30989;52.078;21.014;2024-03-02T12:46:38;166702.56;;;11.23;100.00
45255;BME280;30989;52.078;21.014;2024-03-02T12:49:13;166721.31;;;11.30;100.00
45255;BME280;30989;52.078;21.014;2024-03-02T12:51:42;166753.47;;;11.43;100.00